Time;durP1;ratioP1;P1;durP2;ratioP2;P2;SDS_P1;SDS_P2;PMS_P1;PMS_P2;Temp;Humidity;BMP_temperature;BMP_pressure;BME280_temperature;BME280_humidity;BME280_pressure;Samples;Min_cycle;Max_cycle;Signal;HPM_P1;HPM_P2
2022/03/05 00:02:24;;;;;;;184.97;174.07;;;1.10;99.90;;;;;;4431341;32;20166;-60
2022/03/05 00:04:51;;;;;;;168.97;159.70;;;1.00;99.90;;;;;;4421479;32;20159;-59
2022/03/05 00:07:20;;;;;;;169.53;160.10;;;1.00;99.90;;;;;;4421146;32;20511;-60
2022/03/05 00:09:46;;;;;;;169.30;159.67;;;1.00;99.90;;;;;;4422552;32;20197;-61
2022/03/05 00:12:13;;;;;;;175.20;165.70;;;1.00;99.90;;;;;;4433014;32;20151;-60
2022/03/05 00:14:40;;;;;;;169.70;160.50;;;1.00;99.90;;;;;;4421018;32;20545;-59
2022/03/05 00:17:08;;;;;;;167.37;158.60;;;0.90;99.90;;;;;;4421741;32;20156;-57
2022/03/05 00:19:35;;;;;;;165.83;156.47;;;0.90;99.90;;;;;;4420891;32;20148;-58
2022/03/05 00:22:02;;;;;;;165.20;156.20;;;0.90;99.90;;;;;;4421486;32;20164;-60
2022/03/05 00:24:30;;;;;;;164.47;155.83;;;0.90;99.90;;;;;;4426862;32;20163;-60
2022/03/05 00:26:56;;;;;;;161.57;152.90;;;0.80;99.90;;;;;;4424248;32;20262;-59
2022/03/05 00:29:24;;;;;;;143.37;135.40;;;0.80;99.90;;;;;;4431063;32;20138;-59
2022/03/05 00:31:52;;;;;;;145.50;137.23;;;0.80;99.90;;;;;;4421096;32;20185;-59
2022/03/05 00:34:20;;;;;;;139.23;131.13;;;0.70;99.90;;;;;;4421536;32;20143;-59
2022/03/05 00:36:47;;;;;;;136.17;128.00;;;0.70;99.90;;;;;;4420903;32;20143;-61
2022/03/05 00:39:14;;;;;;;142.47;133.93;;;0.60;99.90;;;;;;4420932;32;20230;-61
2022/03/05 00:41:40;;;;;;;135.93;128.13;;;0.60;99.90;;;;;;4420832;32;20163;-59
2022/03/05 00:44:07;;;;;;;133.87;125.80;;;0.70;99.90;;;;;;4431952;32;20203;-58
2022/03/05 00:46:34;;;;;;;132.37;124.33;;;0.70;99.90;;;;;;4420604;32;20231;-56
2022/03/05 00:49:01;;;;;;;135.17;126.87;;;0.70;99.90;;;;;;4428547;32;20185;-58
2022/03/05 00:51:29;;;;;;;123.37;116.07;;;0.60;99.90;;;;;;4422542;32;20167;-59
2022/03/05 00:53:56;;;;;;;128.73;121.47;;;0.60;99.90;;;;;;4420376;32;20211;-56
2022/03/05 00:56:23;;;;;;;125.80;118.13;;;0.60;99.90;;;;;;4420060;32;20174;-56
2022/03/05 00:58:49;;;;;;;119.63;112.63;;;0.60;99.90;;;;;;4420748;32;20182;-58
2022/03/05 01:01:16;;;;;;;126.97;119.47;;;0.50;99.90;;;;;;4427768;32;20549;-58
2022/03/05 01:03:44;;;;;;;127.10;119.50;;;0.50;99.90;;;;;;4425141;32;20144;-57
2022/03/05 01:06:13;;;;;;;119.03;111.90;;;0.40;99.90;;;;;;4421325;32;20148;-59
2022/03/05 01:08:47;;;;;;;124.50;116.93;;;0.40;99.90;;;;;;4420597;32;20171;-57
2022/03/05 01:11:16;;;;;;;118.83;111.40;;;0.40;99.90;;;;;;4421113;32;20237;-56
2022/03/05 01:13:45;;;;;;;116.50;109.33;;;0.30;99.90;;;;;;4420595;32;20181;-61
2022/03/05 01:16:13;;;;;;;118.07;110.60;;;0.30;99.90;;;;;;4421247;32;20162;-58
2022/03/05 01:18:40;;;;;;;118.97;112.07;;;0.20;99.90;;;;;;4422072;32;20178;-59
2022/03/05 01:21:07;;;;;;;113.07;106.10;;;0.20;99.90;;;;;;4421637;32;20247;-59
2022/03/05 01:23:34;;;;;;;114.97;108.27;;;0.10;99.90;;;;;;4421460;32;20642;-59
2022/03/05 01:26:03;;;;;;;117.87;110.73;;;0.10;99.90;;;;;;4421499;32;20144;-59
2022/03/05 01:28:30;;;;;;;113.30;106.30;;;0.20;99.90;;;;;;4420497;32;20294;-60
2022/03/05 01:30:56;;;;;;;120.70;112.77;;;0.10;99.90;;;;;;4420520;32;20154;-60
2022/03/05 01:33:23;;;;;;;105.57;99.03;;;0.10;99.90;;;;;;4422738;32;20177;-58
2022/03/05 01:35:50;;;;;;;104.00;97.40;;;0.10;99.90;;;;;;4425043;32;20206;-58
2022/03/05 01:38:18;;;;;;;110.07;103.07;;;0.10;99.90;;;;;;4424122;32;20193;-58
2022/03/05 01:40:46;;;;;;;104.63;97.70;;;0.00;99.90;;;;;;4421178;32;20182;-61
2022/03/05 01:43:15;;;;;;;106.90;100.07;;;0.00;99.90;;;;;;4420253;32;20211;-61
2022/03/05 01:45:42;;;;;;;104.63;98.00;;;0.00;99.90;;;;;;4420192;32;20143;-60
2022/03/05 01:48:08;;;;;;;102.27;95.43;;;-0.10;99.90;;;;;;4420257;32;20147;-59
2022/03/05 01:50:35;;;;;;;103.27;96.40;;;-0.10;99.90;;;;;;4422282;32;20147;-60
2022/03/05 01:53:02;;;;;;;97.20;90.40;;;-0.10;99.90;;;;;;4420323;32;20152;-59
2022/03/05 01:55:31;;;;;;;92.50;86.27;;;-0.10;99.90;;;;;;4420052;32;20159;-57
2022/03/05 01:57:58;;;;;;;88.33;82.53;;;-0.20;99.90;;;;;;4420427;32;20174;-59
2022/03/05 02:00:26;;;;;;;88.37;82.20;;;-0.20;99.90;;;;;;4428022;32;20222;-57
2022/03/05 02:02:53;;;;;;;90.07;83.73;;;-0.20;99.90;;;;;;4427411;32;20250;-58
2022/03/05 02:05:20;;;;;;;91.67;85.47;;;-0.20;99.90;;;;;;4419951;32;20183;-59
2022/03/05 02:07:48;;;;;;;88.07;81.87;;;-0.20;99.90;;;;;;4425798;32;20478;-59
2022/03/05 02:10:15;;;;;;;93.47;87.17;;;-0.20;99.90;;;;;;4421837;32;20218;-57
2022/03/05 02:12:42;;;;;;;96.97;89.97;;;-0.20;99.90;;;;;;4431764;32;20219;-58
2022/03/05 02:15:10;;;;;;;85.63;79.73;;;-0.30;99.90;;;;;;4420062;32;20214;-59
2022/03/05 02:17:38;;;;;;;89.80;83.73;;;-0.20;99.90;;;;;;4420119;32;20139;-58
2022/03/05 02:20:07;;;;;;;87.67;81.60;;;-0.30;99.90;;;;;;4420622;32;20177;-58
2022/03/05 02:22:35;;;;;;;93.00;86.60;;;-0.30;99.90;;;;;;4430048;32;20222;-59
2022/03/05 02:25:03;;;;;;;85.43;79.50;;;-0.30;99.90;;;;;;4423058;32;20148;-56
2022/03/05 02:27:30;;;;;;;85.93;79.60;;;-0.40;99.90;;;;;;4422375;32;20147;-58
2022/03/05 02:29:58;;;;;;;93.80;87.17;;;-0.40;99.90;;;;;;4422991;32;20202;-61
2022/03/05 02:32:25;;;;;;;87.30;80.93;;;-0.50;99.90;;;;;;4434372;32;20580;-60
2022/03/05 02:34:52;;;;;;;96.77;89.93;;;-0.50;99.90;;;;;;4432772;32;20159;-61
2022/03/05 02:37:19;;;;;;;103.43;96.57;;;-0.50;99.90;;;;;;4422408;32;20162;-59
2022/03/05 02:39:48;;;;;;;95.17;88.87;;;-0.50;99.90;;;;;;4423511;32;20181;-58
2022/03/05 02:42:16;;;;;;;94.27;87.63;;;-0.50;99.90;;;;;;4423684;32;20168;-58
2022/03/05 02:44:46;;;;;;;92.63;86.23;;;-0.50;99.90;;;;;;4425814;32;20140;-60
2022/03/05 02:47:13;;;;;;;85.03;79.33;;;-0.60;99.90;;;;;;4431085;32;20582;-59
2022/03/05 02:49:40;;;;;;;94.90;88.40;;;-0.60;99.90;;;;;;4422506;32;20527;-60
2022/03/05 02:52:08;;;;;;;99.73;93.37;;;-0.70;99.90;;;;;;4430017;32;20214;-59
2022/03/05 02:54:35;;;;;;;105.93;99.13;;;-0.70;99.90;;;;;;4435297;32;20503;-59
2022/03/05 02:57:03;;;;;;;111.13;103.67;;;-0.60;99.90;;;;;;4422324;32;20219;-60
2022/03/05 02:59:30;;;;;;;105.13;98.37;;;-0.70;99.90;;;;;;4422780;32;20223;-60
2022/03/05 03:01:57;;;;;;;113.03;105.60;;;-0.70;99.90;;;;;;4422889;32;20161;-61
2022/03/05 03:04:24;;;;;;;105.87;98.87;;;-0.70;99.90;;;;;;4433707;32;20151;-58
2022/03/05 03:06:51;;;;;;;103.87;97.10;;;-0.70;99.90;;;;;;4421949;32;20175;-59
2022/03/05 03:09:18;;;;;;;101.73;95.03;;;-0.80;99.90;;;;;;4421901;32;20147;-59
2022/03/05 03:11:45;;;;;;;102.97;96.30;;;-0.90;99.90;;;;;;4429231;32;20567;-61
2022/03/05 03:14:13;;;;;;;103.10;96.27;;;-0.90;99.90;;;;;;4424025;32;20242;-57
2022/03/05 03:16:40;;;;;;;112.63;105.47;;;-0.90;99.90;;;;;;4429328;32;20156;-59
2022/03/05 03:19:06;;;;;;;117.00;109.43;;;-0.90;99.90;;;;;;4421981;32;20214;-58
2022/03/05 03:21:33;;;;;;;118.50;111.00;;;-0.90;99.90;;;;;;4431081;32;20174;-58
2022/03/05 03:24:00;;;;;;;124.50;116.10;;;-0.90;99.90;;;;;;4426784;32;20178;-56
2022/03/05 03:26:27;;;;;;;133.03;124.60;;;-0.90;99.90;;;;;;4421887;32;20169;-59
2022/03/05 03:28:54;;;;;;;135.00;127.03;;;-0.90;99.90;;;;;;4422073;32;20162;-58
2022/03/05 03:31:22;;;;;;;142.97;134.37;;;-0.90;99.90;;;;;;4422778;32;20200;-58
2022/03/05 03:33:49;;;;;;;149.57;140.87;;;-0.90;99.90;;;;;;4425707;32;20548;-60
2022/03/05 03:36:16;;;;;;;148.40;139.30;;;-1.00;99.90;;;;;;4423546;32;20576;-59
2022/03/05 03:38:43;;;;;;;144.97;136.43;;;-1.10;99.90;;;;;;4421817;32;20165;-59
2022/03/05 03:41:09;;;;;;;147.03;138.13;;;-1.10;99.90;;;;;;4421555;32;20174;-58
2022/03/05 03:43:36;;;;;;;142.53;134.23;;;-1.10;99.90;;;;;;4428055;32;20143;-58
2022/03/05 03:46:03;;;;;;;152.83;143.70;;;-1.10;99.90;;;;;;4425561;32;20171;-56
2022/03/05 03:48:31;;;;;;;133.10;124.47;;;-1.10;99.90;;;;;;4421282;32;20692;-60
2022/03/05 03:50:58;;;;;;;127.97;119.30;;;-1.10;99.90;;;;;;4428791;32;20167;-59
2022/03/05 03:53:25;;;;;;;123.17;115.03;;;-1.10;99.90;;;;;;4423362;32;20132;-58
2022/03/05 03:55:52;;;;;;;119.90;111.67;;;-1.10;99.90;;;;;;4426729;32;20151;-60
2022/03/05 03:58:19;;;;;;;119.97;112.27;;;-1.10;99.90;;;;;;4421161;32;20167;-59
2022/03/05 04:00:45;;;;;;;119.93;112.23;;;-1.20;99.90;;;;;;4421252;32;20147;-59
2022/03/05 04:03:13;;;;;;;115.37;107.50;;;-1.20;99.90;;;;;;4421153;32;20222;-59
2022/03/05 04:05:41;;;;;;;116.67;109.23;;;-1.20;99.90;;;;;;4421914;32;20182;-58
2022/03/05 04:10:52;;;;;;;112.97;105.33;;;-1.20;99.90;;;;;;4421619;32;20174;-57
2022/03/05 04:13:19;;;;;;;113.33;105.53;;;-1.20;99.90;;;;;;4423266;32;20521;-59
2022/03/05 04:15:46;;;;;;;115.93;107.43;;;-1.10;99.90;;;;;;4421861;32;20155;-56
2022/03/05 04:18:13;;;;;;;119.20;110.87;;;-1.20;99.90;;;;;;4424823;32;20143;-60
2022/03/05 04:20:43;;;;;;;115.47;107.40;;;-1.30;99.90;;;;;;4429848;32;20169;-59
2022/03/05 04:23:10;;;;;;;114.20;106.03;;;-1.30;99.90;;;;;;4430246;32;20148;-59
2022/03/05 04:25:36;;;;;;;114.23;106.00;;;-1.40;99.90;;;;;;4424943;32;20226;-60
2022/03/05 04:28:04;;;;;;;120.57;112.63;;;-1.30;99.90;;;;;;4422234;32;20579;-56
2022/03/05 04:30:31;;;;;;;115.17;107.00;;;-1.30;99.90;;;;;;4422561;32;20560;-58
2022/03/05 04:32:58;;;;;;;117.93;109.73;;;-1.30;99.90;;;;;;4424776;32;20206;-59
2022/03/05 04:35:24;;;;;;;113.00;105.30;;;-1.40;99.90;;;;;;4428166;32;20148;-59
2022/03/05 04:37:53;;;;;;;116.83;108.73;;;-1.40;99.90;;;;;;4420442;32;20210;-59
2022/03/05 04:40:20;;;;;;;116.53;108.07;;;-1.40;99.90;;;;;;4422148;32;20147;-56
2022/03/05 04:42:47;;;;;;;118.03;109.73;;;-1.40;99.90;;;;;;4420729;32;20143;-58
2022/03/05 04:45:14;;;;;;;118.77;110.67;;;-1.40;99.90;;;;;;4423273;32;20147;-58
2022/03/05 04:47:43;;;;;;;115.63;107.90;;;-1.40;99.90;;;;;;4426740;32;20193;-57
2022/03/05 04:50:11;;;;;;;121.87;113.50;;;-1.50;99.90;;;;;;4421420;32;20166;-58
2022/03/05 04:52:38;;;;;;;125.73;116.50;;;-1.40;99.90;;;;;;4433001;32;20211;-58
2022/03/05 04:55:07;;;;;;;122.67;114.47;;;-1.50;99.90;;;;;;4421345;32;20163;-59
2022/03/05 04:57:35;;;;;;;121.43;113.20;;;-1.50;99.90;;;;;;4429521;32;20193;-59
2022/03/05 05:00:02;;;;;;;133.47;124.13;;;-1.50;99.90;;;;;;4424009;32;20594;-59
2022/03/05 05:02:29;;;;;;;126.50;117.00;;;-1.50;99.90;;;;;;4420995;32;20220;-59
2022/03/05 05:04:56;;;;;;;134.90;125.60;;;-1.50;99.90;;;;;;4425671;32;20146;-59
2022/03/05 05:07:22;;;;;;;134.43;125.40;;;-1.50;99.90;;;;;;4428011;32;20523;-58
2022/03/05 05:09:49;;;;;;;132.20;123.57;;;-1.50;99.90;;;;;;4420848;32;20231;-59
2022/03/05 05:12:17;;;;;;;144.70;134.93;;;-1.60;99.90;;;;;;4422473;32;20461;-59
2022/03/05 05:14:44;;;;;;;132.33;123.30;;;-1.60;99.90;;;;;;4424242;32;20189;-57
2022/03/05 05:17:13;;;;;;;137.93;128.33;;;-1.60;99.90;;;;;;4429284;32;20210;-59
2022/03/05 05:19:40;;;;;;;138.50;129.57;;;-1.60;99.90;;;;;;4420633;32;20171;-57
2022/03/05 05:22:07;;;;;;;145.47;135.47;;;-1.60;99.90;;;;;;4421107;32;20212;-56
2022/03/05 05:24:35;;;;;;;141.03;130.97;;;-1.60;99.90;;;;;;4431004;32;20163;-55
2022/03/05 05:27:03;;;;;;;145.53;135.33;;;-1.60;99.90;;;;;;4420310;32;20205;-58
2022/03/05 05:29:31;;;;;;;156.93;146.47;;;-1.60;99.90;;;;;;4424793;32;20183;-58
2022/03/05 05:31:58;;;;;;;155.83;145.10;;;-1.60;99.90;;;;;;4426736;32;20220;-57
2022/03/05 05:34:25;;;;;;;153.60;143.63;;;-1.60;99.90;;;;;;4421240;32;20230;-57
2022/03/05 05:36:52;;;;;;;151.23;141.13;;;-1.60;99.90;;;;;;4421906;32;20198;-58
2022/03/05 05:39:19;;;;;;;148.87;138.77;;;-1.70;99.90;;;;;;4420237;32;20179;-59
2022/03/05 05:41:46;;;;;;;150.47;140.67;;;-1.70;99.90;;;;;;4421357;32;20225;-56
2022/03/05 05:44:13;;;;;;;159.47;148.93;;;-1.70;99.90;;;;;;4420400;32;20594;-55
2022/03/05 05:46:43;;;;;;;154.60;144.53;;;-1.70;99.90;;;;;;4424243;32;20139;-58
2022/03/05 05:49:10;;;;;;;153.10;143.07;;;-1.70;99.90;;;;;;4429057;32;20148;-51
2022/03/05 05:51:37;;;;;;;156.93;146.03;;;-1.70;99.90;;;;;;4420908;32;20144;-57
2022/03/05 05:54:04;;;;;;;156.00;145.73;;;-1.70;99.90;;;;;;4421243;32;20219;-55
2022/03/05 05:56:31;;;;;;;155.27;144.60;;;-1.70;99.90;;;;;;4432829;32;20162;-59
2022/03/05 05:58:58;;;;;;;157.33;146.90;;;-1.70;99.90;;;;;;4422078;32;20167;-58
2022/03/05 06:01:24;;;;;;;157.87;147.40;;;-1.70;99.90;;;;;;4422829;32;20450;-57
2022/03/05 06:03:53;;;;;;;168.90;157.60;;;-1.70;99.90;;;;;;4432780;32;20520;-56
2022/03/05 06:06:21;;;;;;;160.93;150.37;;;-1.70;99.90;;;;;;4437710;32;20210;-59
2022/03/05 06:08:47;;;;;;;156.83;146.37;;;-1.70;99.90;;;;;;4422899;32;20187;-56
2022/03/05 06:11:14;;;;;;;156.20;145.60;;;-1.70;99.90;;;;;;4424514;32;20532;-54
2022/03/05 06:13:41;;;;;;;160.83;150.13;;;-1.70;99.90;;;;;;4428516;32;20144;-56
2022/03/05 06:16:08;;;;;;;159.43;148.67;;;-1.70;99.90;;;;;;4437895;32;20159;-56
2022/03/05 06:18:35;;;;;;;157.20;146.63;;;-1.70;99.90;;;;;;4424029;32;20166;-58
2022/03/05 06:21:05;;;;;;;152.90;142.70;;;-1.70;99.90;;;;;;4424658;32;20259;-60
2022/03/05 06:23:32;;;;;;;155.33;144.63;;;-1.70;99.90;;;;;;4431848;32;20163;-56
2022/03/05 06:25:59;;;;;;;167.13;155.33;;;-1.70;99.90;;;;;;4430934;32;20214;-57
2022/03/05 06:28:26;;;;;;;159.60;149.13;;;-1.60;99.90;;;;;;4422676;32;20167;-59
2022/03/05 06:30:52;;;;;;;153.87;143.47;;;-1.60;99.90;;;;;;4422726;32;20182;-58
2022/03/05 06:33:19;;;;;;;159.70;148.50;;;-1.50;99.90;;;;;;4424235;32;20164;-55
2022/03/05 06:35:46;;;;;;;158.43;148.10;;;-1.50;99.90;;;;;;4423762;32;20142;-57
2022/03/05 06:38:14;;;;;;;160.37;149.90;;;-1.50;99.90;;;;;;4426848;32;20163;-59
2022/03/05 06:40:41;;;;;;;158.23;147.33;;;-1.40;99.90;;;;;;4430185;32;20219;-55
2022/03/05 06:43:08;;;;;;;164.97;153.93;;;-1.40;99.90;;;;;;4423302;32;20166;-59
2022/03/05 06:45:35;;;;;;;167.30;155.93;;;-1.40;99.90;;;;;;4423059;32;20174;-61
2022/03/05 06:48:02;;;;;;;162.30;151.27;;;-1.40;99.90;;;;;;4434237;32;20201;-56
2022/03/05 06:50:29;;;;;;;168.07;156.93;;;-1.40;99.90;;;;;;4422860;32;20223;-58
2022/03/05 06:52:56;;;;;;;166.40;154.90;;;-1.40;99.90;;;;;;4431308;32;20223;-57
2022/03/05 06:55:24;;;;;;;167.30;156.33;;;-1.30;99.90;;;;;;4429867;32;20254;-58
2022/03/05 06:57:51;;;;;;;160.90;149.87;;;-1.30;99.90;;;;;;4423626;32;20215;-57
2022/03/05 07:00:18;;;;;;;165.13;154.07;;;-1.30;99.90;;;;;;4421950;32;20156;-61
2022/03/05 07:02:45;;;;;;;160.87;150.10;;;-1.20;99.90;;;;;;4424360;32;20555;-55
2022/03/05 07:05:14;;;;;;;167.90;156.67;;;-1.10;99.90;;;;;;4427935;32;20174;-55
2022/03/05 07:07:41;;;;;;;160.73;150.10;;;-1.10;99.90;;;;;;4426933;32;20214;-58
2022/03/05 07:10:09;;;;;;;167.13;155.47;;;-1.00;99.90;;;;;;4426088;32;20185;-57
2022/03/05 07:12:37;;;;;;;162.97;152.13;;;-0.90;99.90;;;;;;4427035;32;20151;-57
2022/03/05 07:15:05;;;;;;;165.13;154.17;;;-0.90;99.90;;;;;;4427893;32;20167;-59
2022/03/05 07:17:32;;;;;;;162.53;152.07;;;-0.80;99.90;;;;;;4427239;32;20189;-59
2022/03/05 07:19:59;;;;;;;161.07;149.97;;;-0.80;99.90;;;;;;4426235;32;20549;-56
2022/03/05 07:22:26;;;;;;;171.70;160.37;;;-0.70;99.90;;;;;;4427247;32;20287;-59
2022/03/05 07:24:52;;;;;;;162.83;152.10;;;-0.60;99.90;;;;;;4428022;32;20262;-59
2022/03/05 07:27:19;;;;;;;169.50;158.43;;;-0.50;99.90;;;;;;4428625;32;20163;-59
2022/03/05 07:29:47;;;;;;;161.67;150.93;;;-0.40;99.90;;;;;;4425710;32;20218;-58
2022/03/05 07:32:14;;;;;;;169.90;159.00;;;-0.30;99.90;;;;;;4426077;32;20572;-59
2022/03/05 07:34:41;;;;;;;167.97;156.73;;;-0.30;99.90;;;;;;4428052;32;20150;-59
2022/03/05 07:37:08;;;;;;;163.40;152.87;;;-0.20;99.90;;;;;;4428212;32;20147;-56
2022/03/05 07:39:35;;;;;;;172.17;161.03;;;-0.10;99.90;;;;;;4425891;32;20571;-59
2022/03/05 07:42:02;;;;;;;167.33;156.17;;;0.00;99.90;;;;;;4427008;32;20240;-57
2022/03/05 07:44:29;;;;;;;164.07;153.33;;;0.10;99.90;;;;;;4425103;32;20255;-58
2022/03/05 07:46:57;;;;;;;160.53;150.23;;;0.20;99.90;;;;;;4425332;32;20211;-56
2022/03/05 07:49:24;;;;;;;160.43;149.33;;;0.20;99.90;;;;;;4424727;32;20143;-60
2022/03/05 07:51:52;;;;;;;161.53;150.80;;;0.30;99.90;;;;;;4426088;32;20171;-58
2022/03/05 07:54:19;;;;;;;160.47;149.93;;;0.40;99.90;;;;;;4425145;32;20566;-59
2022/03/05 07:56:46;;;;;;;161.47;150.73;;;0.40;99.90;;;;;;4426024;32;20245;-58
2022/03/05 07:59:14;;;;;;;157.73;146.70;;;0.50;99.90;;;;;;4425353;32;20191;-58
2022/03/05 08:01:40;;;;;;;163.63;152.67;;;0.60;99.90;;;;;;4425885;32;20163;-58
2022/03/05 08:04:09;;;;;;;162.60;151.57;;;0.70;99.90;;;;;;4423820;32;20163;-56
2022/03/05 08:06:37;;;;;;;160.53;149.87;;;0.80;99.90;;;;;;4424932;32;20169;-56
2022/03/05 08:09:03;;;;;;;160.30;149.43;;;0.90;99.90;;;;;;4424613;32;20182;-59
2022/03/05 08:11:30;;;;;;;156.10;145.17;;;1.00;99.90;;;;;;4426258;32;20238;-57
2022/03/05 08:13:57;;;;;;;161.77;151.17;;;1.00;99.90;;;;;;4424222;32;20181;-57
2022/03/05 08:16:24;;;;;;;156.03;145.13;;;1.20;99.90;;;;;;4424172;32;20232;-59
2022/03/05 08:22:20;;;;;;;144.80;135.13;;;1.40;99.90;;;;;;4424797;32;20233;-57
2022/03/05 08:24:51;;;;;;;151.67;140.90;;;1.50;99.90;;;;;;4410619;32;20187;-59
2022/03/05 08:27:28;;;;;;;148.47;138.07;;;1.60;99.90;;;;;;4425898;32;20713;-57
2022/03/05 08:30:08;;;;;;;144.37;134.50;;;1.70;99.90;;;;;;4424319;32;20147;-58
2022/03/05 08:32:39;;;;;;;147.00;136.93;;;1.80;99.90;;;;;;4423793;32;20144;-58
2022/03/05 08:35:27;;;;;;;145.90;136.17;;;2.00;99.90;;;;;;4426064;32;20146;-58
2022/03/05 08:38:05;;;;;;;147.13;137.27;;;2.00;99.90;;;;;;4425517;32;20189;-60
2022/03/05 08:40:36;;;;;;;148.00;138.00;;;2.20;99.90;;;;;;4424479;32;20154;-58
2022/03/05 08:43:10;;;;;;;149.40;139.63;;;2.30;99.90;;;;;;4425123;32;20162;-58
2022/03/05 08:45:47;;;;;;;140.93;130.77;;;2.40;99.90;;;;;;4427133;32;20484;-57
2022/03/05 08:48:24;;;;;;;138.90;128.87;;;2.40;99.90;;;;;;4426608;32;20650;-59
2022/03/05 08:50:57;;;;;;;140.77;131.03;;;2.60;99.90;;;;;;4425704;32;20200;-58
2022/03/05 08:53:30;;;;;;;139.57;129.00;;;2.70;99.90;;;;;;4424678;32;20257;-58
2022/03/05 08:56:09;;;;;;;140.07;129.80;;;2.80;99.90;;;;;;4424822;32;20148;-60
2022/03/05 08:58:44;;;;;;;130.77;120.97;;;2.90;99.90;;;;;;4425049;32;20152;-58
2022/03/05 09:01:16;;;;;;;134.80;125.07;;;3.10;99.90;;;;;;4422306;32;20226;-59
2022/03/05 09:03:55;;;;;;;129.90;120.43;;;3.20;99.90;;;;;;4427350;32;20243;-56
2022/03/05 09:06:25;;;;;;;133.93;123.63;;;3.20;99.90;;;;;;4427489;32;20152;-58
2022/03/05 09:09:03;;;;;;;126.80;117.47;;;3.20;99.90;;;;;;4428304;32;20173;-57
2022/03/05 09:11:37;;;;;;;127.17;117.47;;;3.30;99.90;;;;;;4424640;32;20302;-59
2022/03/05 09:14:17;;;;;;;127.37;118.10;;;3.30;99.90;;;;;;4425766;32;20144;-56
2022/03/05 09:16:49;;;;;;;128.67;119.60;;;3.40;99.90;;;;;;4425645;32;20148;-59
2022/03/05 09:19:29;;;;;;;129.00;119.23;;;3.40;99.90;;;;;;4424897;32;20149;-57
2022/03/05 09:22:10;;;;;;;122.50;113.67;;;3.50;99.90;;;;;;4422928;32;20194;-60
2022/03/05 09:25:02;;;;;;;122.37;113.77;;;3.60;99.90;;;;;;4424766;32;20198;-59
2022/03/05 09:27:29;;;;;;;131.97;122.83;;;3.70;99.90;;;;;;4424502;32;20131;-57
2022/03/05 09:30:22;;;;;;;128.20;119.30;;;3.70;99.90;;;;;;4425413;32;20478;-59
2022/03/05 09:32:52;;;;;;;129.00;119.40;;;3.80;99.90;;;;;;4425907;32;20204;-56
2022/03/05 09:35:41;;;;;;;;;;;;;;;;;;;;;
2022/03/05 09:38:18;;;;;;;127.17;118.07;;;3.90;99.90;;;;;;4427464;32;20192;-58
2022/03/05 09:40:54;;;;;;;130.47;121.07;;;3.90;99.90;;;;;;4426287;32;20209;-59
2022/03/05 09:43:34;;;;;;;;;;;;;;;;;;;;;
2022/03/05 09:46:38;;;;;;;122.37;113.13;;;4.10;99.90;;;;;;4428014;32;20143;-58
2022/03/05 09:49:16;;;;;;;110.30;101.90;;;4.20;99.90;;;;;;4427788;32;20158;-60
2022/03/05 09:54:36;;;;;;;112.47;103.97;;;4.30;99.90;;;;;;4389909;32;20150;-57
2022/03/05 09:57:10;;;;;;;123.40;113.97;;;4.30;99.90;;;;;;4378788;32;20155;-59
2022/03/05 09:59:40;;;;;;;120.17;111.60;;;4.30;99.90;;;;;;4388017;32;20250;-59
2022/03/05 10:02:07;;;;;;;121.97;113.23;;;4.50;99.90;;;;;;4378354;32;20167;-56
2022/03/05 10:04:43;;;;;;;121.97;113.10;;;4.60;99.90;;;;;;4390214;32;20653;-57
2022/03/05 10:07:17;;;;;;;126.17;117.50;;;4.70;99.90;;;;;;4386189;32;20362;-58
2022/03/05 10:10:10;;;;;;;118.00;109.07;;;4.70;99.90;;;;;;4389390;32;20180;-59
2022/03/05 10:12:44;;;;;;;115.67;106.87;;;4.90;99.90;;;;;;4381670;32;20152;-59
2022/03/05 10:15:33;;;;;;;124.83;115.57;;;5.00;99.90;;;;;;4386505;32;20567;-59
2022/03/05 10:18:29;;;;;;;118.67;109.63;;;5.10;99.90;;;;;;4370926;32;20207;-58
2022/03/05 10:21:16;;;;;;;112.27;104.13;;;5.10;99.90;;;;;;4386231;32;20227;-60
2022/03/05 10:24:05;;;;;;;110.70;102.57;;;5.20;99.90;;;;;;4382759;32;20158;-57
2022/03/05 10:26:59;;;;;;;113.50;105.13;;;5.20;99.90;;;;;;4379406;32;20175;-57
2022/03/05 10:29:34;;;;;;;119.70;110.60;;;5.30;99.90;;;;;;4380929;32;20259;-57
2022/03/05 10:32:06;;;;;;;119.13;110.67;;;5.40;99.90;;;;;;4409884;32;20150;-57
2022/03/05 10:35:03;;;;;;;112.63;104.60;;;5.60;99.90;;;;;;4424834;32;20162;-55
2022/03/05 10:37:40;;;;;;;109.77;101.07;;;5.70;99.90;;;;;;4429600;32;20276;-58
2022/03/05 10:40:16;;;;;;;113.83;105.53;;;5.70;99.90;;;;;;4430362;32;20181;-57
2022/03/05 10:43:20;;;;;;;119.83;111.27;;;5.90;99.90;;;;;;4429785;32;20488;-58
2022/03/05 10:45:59;;;;;;;110.87;102.27;;;5.90;99.90;;;;;;4425061;32;20140;-57
2022/03/05 10:48:34;;;;;;;108.40;100.60;;;6.00;99.90;;;;;;4423422;32;20154;-58
2022/03/05 10:51:13;;;;;;;111.40;103.10;;;6.00;99.90;;;;;;4426722;32;20208;-58
2022/03/05 10:53:44;;;;;;;114.47;106.10;;;6.20;99.90;;;;;;4432173;32;20139;-57
2022/03/05 10:56:31;;;;;;;111.80;103.30;;;6.20;99.90;;;;;;4425557;32;20143;-58
2022/03/05 10:59:23;;;;;;;104.47;96.37;;;6.30;99.90;;;;;;4424658;32;20213;-57
2022/03/05 11:02:09;;;;;;;111.07;102.77;;;6.30;99.90;;;;;;4371870;32;20156;-58
2022/03/05 11:04:46;;;;;;;115.57;106.73;;;6.30;99.90;;;;;;4372810;32;20153;-58
2022/03/05 11:07:29;;;;;;;111.73;103.63;;;6.30;99.90;;;;;;4373222;32;20141;-57
2022/03/05 11:10:03;;;;;;;113.37;105.27;;;6.40;99.90;;;;;;4373271;32;20194;-59
2022/03/05 11:12:45;;;;;;;111.10;102.93;;;6.40;99.90;;;;;;4369321;32;20202;-56
2022/03/05 11:15:30;;;;;;;107.03;98.57;;;6.60;99.90;;;;;;4369013;32;20206;-58
2022/03/05 11:18:15;;;;;;;105.33;97.23;;;6.60;99.90;;;;;;4374574;32;20152;-59
2022/03/05 11:20:50;;;;;;;103.57;95.47;;;6.70;99.90;;;;;;4368107;32;20222;-59
2022/03/05 11:26:21;;;;;;;100.40;92.30;;;6.80;99.60;;;;;;4358695;32;20271;-59
2022/03/05 11:29:04;;;;;;;101.83;93.70;;;6.80;99.70;;;;;;4374080;32;20157;-58
2022/03/05 11:34:53;;;;;;;101.07;92.90;;;6.90;99.50;;;;;;4368291;32;20217;-59
2022/03/05 11:37:33;;;;;;;101.40;93.53;;;6.90;99.50;;;;;;4368054;32;20152;-58
2022/03/05 11:40:42;;;;;;;97.90;90.27;;;6.90;99.10;;;;;;4424888;32;20152;-59
2022/03/05 11:43:47;;;;;;;94.80;87.27;;;7.00;99.20;;;;;;4424270;32;20201;-58
2022/03/05 11:46:26;;;;;;;97.53;89.47;;;7.00;98.90;;;;;;4426847;32;20180;-61
2022/03/05 11:49:28;;;;;;;96.27;88.30;;;7.00;99.30;;;;;;4426736;32;20149;-61
2022/03/05 11:52:03;;;;;;;97.97;90.23;;;7.00;98.90;;;;;;4381196;32;20160;-60
2022/03/05 11:55:10;;;;;;;90.87;83.53;;;7.00;99.10;;;;;;4379232;32;20621;-60
2022/03/05 11:57:47;;;;;;;98.27;90.83;;;7.00;98.90;;;;;;4383570;32;20270;-59
2022/03/05 12:00:21;;;;;;;94.53;87.07;;;7.10;99.20;;;;;;4381362;32;20231;-60
2022/03/05 12:03:09;;;;;;;98.37;90.47;;;7.10;99.20;;;;;;4382173;32;20160;-59
2022/03/05 12:06:05;;;;;;;101.67;94.03;;;7.20;99.10;;;;;;4381723;32;20278;-60
2022/03/05 12:08:52;;;;;;;103.83;95.67;;;7.20;98.70;;;;;;4383428;32;20160;-57
2022/03/05 12:11:21;;;;;;;97.97;90.23;;;7.30;98.60;;;;;;4381215;32;20187;-60
2022/03/05 12:13:52;;;;;;;94.03;86.40;;;7.30;98.80;;;;;;4385101;32;20576;-58
2022/03/05 12:16:21;;;;;;;103.07;95.00;;;7.30;98.20;;;;;;4380850;32;20152;-59
2022/03/05 12:18:49;;;;;;;99.53;91.70;;;7.30;98.80;;;;;;4383796;32;20580;-58
2022/03/05 12:21:24;;;;;;;99.90;92.50;;;7.40;98.50;;;;;;4379947;32;20734;-59
2022/03/05 12:23:58;;;;;;;103.83;96.17;;;7.40;98.20;;;;;;4381503;32;20227;-59
2022/03/05 12:26:34;;;;;;;92.77;85.37;;;7.40;98.00;;;;;;4382928;32;20170;-59
2022/03/05 12:29:03;;;;;;;100.50;92.77;;;7.40;97.90;;;;;;4390268;32;20160;-59
2022/03/05 12:31:31;;;;;;;97.13;89.53;;;7.40;97.90;;;;;;4399752;32;20135;-58
2022/03/05 12:33:58;;;;;;;96.53;89.13;;;7.40;98.00;;;;;;4401527;32;20144;-60
2022/03/05 12:36:24;;;;;;;94.10;86.83;;;7.40;98.00;;;;;;4394124;32;20163;-59
2022/03/05 12:38:58;;;;;;;97.97;90.47;;;7.40;97.50;;;;;;4394787;32;20160;-59
2022/03/05 12:41:27;;;;;;;105.67;97.27;;;7.50;97.70;;;;;;4399882;32;20151;-58
2022/03/05 12:43:54;;;;;;;96.63;88.77;;;7.50;97.80;;;;;;4402747;32;20248;-59
2022/03/05 12:46:22;;;;;;;98.67;91.00;;;7.50;97.60;;;;;;4399532;32;20152;-60
2022/03/05 12:48:52;;;;;;;103.17;94.90;;;7.40;97.70;;;;;;4399956;32;20204;-58
2022/03/05 12:51:22;;;;;;;101.53;93.77;;;7.60;97.90;;;;;;4397990;32;20206;-60
2022/03/05 12:54:03;;;;;;;96.77;89.40;;;7.60;97.50;;;;;;4400141;32;20203;-59